Hauptseite
METAR-TAF:

METAR-TAF

Flughäfen :

Flughafen Burgos

Burgos, Spanien

Breite: 42-22N, Länge: 003-38W, Höhe: 894 m

Beobachtung

Neuester Wetterbericht von vor 28 Minuten, um 11:30 UTC
Wind 5 kt aus Nord/Nordost, variierte zwischen Nord/Nordwest und Ost/Nordost
Temperatur 9°C
Luftfeuchtigkeit 100%
Luftdruck 1023 hPa
Sichtweite 10 km oder mehr
Durchbrochene Bewölkung in der Höhe von 500 ft

METAR: LEBG 141130Z 03005KT 340V060 9999 BKN005 09/09 Q1023

Zeit: 12:58 (11:58 UTC)

Prognose

Neuester Wetterbericht von vor 58 Minuten, um 11:00 UTC
Gültige Prognose vom 14 um 12 UTC bis 14 um 21 UTC
Wind 5 kt aus Ost/Südost
Sichtweite: 7000 m
Aufgelockert bewölkt in der Höhe von 1200 ft

TAF: LEBG 141100Z 1412/1421 12005KT 7000 SCT012

Wetterbeobachtungen und Prognosen von mehr als 4000 Flughäfen (METAR und TAF Bericht).

Die verfügbaren Stationen werden durch gelbe und rote Markierungen auf der Karte dargestellt.

Führen Sie die Maus auf sie, um den Namen der Station zu sehen.

Darauf klicken, um die Beobachtung von Wetterbeobachtungen und Prognosen zu sehen.

Um die Karte zu ändern : klicken Sie auf den grünen Tasten mit einem schwarzen Kreuz Zum Vergrößern, auf den grünen Button mit einem Gedankenstrich zu verkleinern, oder auf die grünen Pfeile für benachbarte Karten.


METAR-TAF: